Time;durP1;ratioP1;P1;durP2;ratioP2;P2;SDS_P1;SDS_P2;PMS_P1;PMS_P2;Temp;Humidity;BMP_temperature;BMP_pressure;BME280_temperature;BME280_humidity;BME280_pressure;Samples;Min_cycle;Max_cycle;Signal;HPM_P1;HPM_P2
2021/05/30 00:00:50;;;;;;;19.02;10.43;;;;;;;;;;10265964;28;20128;-71
2021/05/30 00:05:47;;;;;;;23.10;12.38;;;;;;;;;;10265830;28;20513;-70
2021/05/30 00:15:48;;;;;;;17.00;12.07;;;;;;;;;;10589170;22;20656;-71
2021/05/30 00:20:45;;;;;;;22.23;11.75;;;;;;;;;;10272931;28;20722;-71
2021/05/30 00:25:41;;;;;;;28.33;13.13;;;;;;;;;;10270646;28;20119;-69
2021/05/30 00:30:38;;;;;;;26.30;12.43;;;;;;;;;;10277350;28;20045;-69
2021/05/30 00:35:34;;;;;;;28.63;12.88;;;;;;;;;;10279480;28;20099;-70
2021/05/30 00:40:30;;;;;;;17.35;10.98;;;;;;;;;;10268848;28;20065;-71
2021/05/30 00:45:28;;;;;;;24.05;12.60;;;;;;;;;;10280681;28;20045;-70
2021/05/30 00:50:24;;;;;;;26.30;12.85;;;;;;;;;;10274113;28;20044;-72
2021/05/30 00:55:21;;;;;;;22.88;12.43;;;;;;;;;;10268751;28;20483;-69
2021/05/30 01:00:18;;;;;;;17.70;11.95;;;;;;;;;;10271886;28;20087;-71
2021/05/30 01:05:14;;;;;;;22.17;12.30;;;;;;;;;;10275632;28;20562;-74
2021/05/30 01:10:26;;;;;;;27.55;12.90;;;;;;;;;;10275956;28;20087;-72
2021/05/30 01:15:23;;;;;;;22.48;12.10;;;;;;;;;;10274569;28;20054;-72
2021/05/30 01:20:19;;;;;;;20.63;12.48;;;;;;;;;;10278286;28;20136;-71
2021/05/30 01:25:20;;;;;;;30.27;15.95;;;;;;;;;;10271743;28;20509;-68
2021/05/30 01:30:17;;;;;;;34.67;15.80;;;;;;;;;;10280845;28;20061;-68
2021/05/30 01:35:13;;;;;;;25.20;14.10;;;;;;;;;;10270973;28;20140;-70
2021/05/30 01:40:10;;;;;;;26.20;15.00;;;;;;;;;;10275469;28;20669;-71
2021/05/30 01:45:08;;;;;;;25.85;15.25;;;;;;;;;;10268499;28;20073;-71
2021/05/30 01:50:05;;;;;;;26.88;15.45;;;;;;;;;;10281780;28;20546;-73
2021/05/30 01:55:02;;;;;;;24.70;13.27;;;;;;;;;;10269221;28;20464;-72
2021/05/30 01:59:58;;;;;;;24.30;13.00;;;;;;;;;;10267872;28;20041;-67
2021/05/30 02:04:55;;;;;;;20.42;12.98;;;;;;;;;;10246721;28;20041;-71
2021/05/30 02:09:51;;;;;;;20.52;11.82;;;;;;;;;;10274325;28;20037;-70
2021/05/30 02:14:48;;;;;;;20.63;12.23;;;;;;;;;;10272509;28;20742;-71
2021/05/30 02:19:45;;;;;;;22.17;13.27;;;;;;;;;;10277476;28;20140;-69
2021/05/30 02:24:43;;;;;;;25.65;12.80;;;;;;;;;;10278648;28;20041;-67
2021/05/30 02:29:41;;;;;;;21.75;12.98;;;;;;;;;;10273217;28;20139;-68
2021/05/30 02:34:41;;;;;;;24.55;13.30;;;;;;;;;;10270945;28;20071;-69
2021/05/30 02:39:37;;;;;;;20.25;12.60;;;;;;;;;;10275717;28;20052;-70
2021/05/30 02:44:34;;;;;;;24.20;13.40;;;;;;;;;;10268959;28;20056;-71
2021/05/30 02:49:32;;;;;;;23.38;14.13;;;;;;;;;;10273754;28;20054;-69
2021/05/30 02:54:29;;;;;;;26.50;14.10;;;;;;;;;;10272305;28;20099;-70
2021/05/30 02:59:25;;;;;;;24.90;12.98;;;;;;;;;;10273731;28;20041;-70
2021/05/30 03:04:22;;;;;;;24.33;13.82;;;;;;;;;;10270411;28;20689;-70
2021/05/30 03:09:19;;;;;;;24.15;13.57;;;;;;;;;;10282476;28;20048;-68
2021/05/30 03:14:15;;;;;;;25.27;14.93;;;;;;;;;;10270592;28;20097;-69
2021/05/30 03:19:12;;;;;;;29.60;15.30;;;;;;;;;;10280609;28;20379;-69
2021/05/30 03:24:09;;;;;;;30.17;17.20;;;;;;;;;;10276578;28;20041;-68
2021/05/30 03:29:06;;;;;;;24.27;14.32;;;;;;;;;;10272508;28;20070;-69
2021/05/30 03:34:03;;;;;;;27.58;15.98;;;;;;;;;;10274072;28;20514;-68
2021/05/30 03:39:02;;;;;;;26.20;15.95;;;;;;;;;;10272860;28;20127;-70
2021/05/30 03:44:00;;;;;;;27.30;15.65;;;;;;;;;;10276951;28;20064;-70
2021/05/30 03:48:57;;;;;;;24.88;15.45;;;;;;;;;;10274144;28;20124;-70
2021/05/30 03:53:53;;;;;;;25.70;17.02;;;;;;;;;;10278064;28;20222;-68
2021/05/30 03:58:50;;;;;;;29.17;17.52;;;;;;;;;;10271305;28;20048;-68
2021/05/30 04:03:47;;;;;;;24.40;15.48;;;;;;;;;;10272380;28;20072;-69
2021/05/30 04:08:46;;;;;;;28.77;15.30;;;;;;;;;;10269011;28;20037;-69
2021/05/30 04:13:43;;;;;;;25.75;16.02;;;;;;;;;;10266772;28;20040;-69
2021/05/30 04:18:40;;;;;;;28.48;16.13;;;;;;;;;;10278635;28;20041;-68
2021/05/30 04:23:37;;;;;;;26.70;16.05;;;;;;;;;;10269075;28;20128;-69
2021/05/30 04:28:34;;;;;;;29.70;17.33;;;;;;;;;;10267796;28;20049;-68
2021/05/30 04:33:31;;;;;;;30.10;18.45;;;;;;;;;;10260405;28;20111;-69
2021/05/30 04:38:27;;;;;;;32.60;19.75;;;;;;;;;;10272367;28;20049;-66
2021/05/30 04:43:28;;;;;;;41.65;21.63;;;;;;;;;;10270615;28;20135;-68
2021/05/30 04:48:24;;;;;;;40.13;23.25;;;;;;;;;;10272725;28;20045;-69
2021/05/30 04:53:21;;;;;;;39.67;23.30;;;;;;;;;;10263629;28;20464;-67
2021/05/30 04:58:17;;;;;;;33.08;21.67;;;;;;;;;;10262952;28;20482;-67
2021/05/30 05:03:14;;;;;;;44.47;21.02;;;;;;;;;;10258192;28;20048;-69
2021/05/30 05:08:11;;;;;;;47.33;23.85;;;;;;;;;;10270407;28;20037;-67
2021/05/30 05:13:07;;;;;;;49.55;23.48;;;;;;;;;;10267981;28;20051;-66
2021/05/30 05:18:13;;;;;;;42.42;23.90;;;;;;;;;;10277191;28;20072;-67
2021/05/30 05:23:13;;;;;;;55.95;24.00;;;;;;;;;;10276640;28;20073;-67
2021/05/30 05:28:10;;;;;;;38.47;19.65;;;;;;;;;;10267154;28;20429;-67
2021/05/30 05:33:06;;;;;;;34.45;19.98;;;;;;;;;;10274174;28;20124;-66
2021/05/30 05:38:03;;;;;;;40.05;19.40;;;;;;;;;;10271124;28;20476;-67
2021/05/30 05:43:00;;;;;;;44.38;20.90;;;;;;;;;;10266058;28;20041;-67
2021/05/30 05:47:56;;;;;;;49.28;21.88;;;;;;;;;;10271467;28;20102;-67
2021/05/30 05:52:54;;;;;;;37.97;18.88;;;;;;;;;;10281514;28;20052;-68
2021/05/30 05:57:51;;;;;;;40.00;18.65;;;;;;;;;;10281086;28;20075;-68
2021/05/30 06:02:52;;;;;;;35.70;20.08;;;;;;;;;;10266382;28;20072;-68
2021/05/30 06:07:50;;;;;;;37.10;18.85;;;;;;;;;;10292989;28;20045;-68
2021/05/30 06:12:46;;;;;;;33.35;20.05;;;;;;;;;;10278047;28;20072;-68
2021/05/30 06:17:43;;;;;;;32.90;18.58;;;;;;;;;;10281937;28;20049;-70
2021/05/30 06:22:40;;;;;;;41.50;20.92;;;;;;;;;;10276560;28;20118;-69
2021/05/30 06:27:36;;;;;;;28.10;17.52;;;;;;;;;;10274590;28;20140;-69
2021/05/30 06:32:33;;;;;;;35.15;20.08;;;;;;;;;;10278232;28;20036;-69
2021/05/30 06:37:30;;;;;;;31.42;17.52;;;;;;;;;;10276163;28;20140;-69
2021/05/30 06:42:26;;;;;;;33.60;18.13;;;;;;;;;;10265718;28;20091;-69
2021/05/30 06:47:24;;;;;;;30.33;16.50;;;;;;;;;;10276748;28;20476;-69
2021/05/30 06:52:20;;;;;;;30.45;17.63;;;;;;;;;;10275636;28;20675;-68
2021/05/30 06:57:18;;;;;;;26.10;16.15;;;;;;;;;;10265973;28;20076;-70
2021/05/30 07:02:15;;;;;;;28.33;16.45;;;;;;;;;;10266351;28;20041;-68
2021/05/30 07:07:12;;;;;;;26.88;16.50;;;;;;;;;;10274807;28;20064;-68
2021/05/30 07:12:09;;;;;;;27.00;15.73;;;;;;;;;;10251884;28;20426;-68
2021/05/30 07:17:06;;;;;;;32.58;18.73;;;;;;;;;;10253705;28;20045;-68
2021/05/30 07:22:03;;;;;;;37.13;17.67;;;;;;;;;;10254586;28;20092;-69
2021/05/30 07:27:00;;;;;;;28.73;15.40;;;;;;;;;;10246914;28;20041;-68
2021/05/30 07:31:57;;;;;;;25.58;15.05;;;;;;;;;;10255845;28;20049;-69
2021/05/30 07:36:54;;;;;;;25.27;11.90;;;;;;;;;;10247979;28;20071;-69
2021/05/30 07:41:51;;;;;;;19.27;11.60;;;;;;;;;;10240196;28;20055;-69
2021/05/30 07:46:48;;;;;;;21.58;12.27;;;;;;;;;;10247962;28;20175;-69
2021/05/30 07:51:45;;;;;;;25.02;13.15;;;;;;;;;;10252524;28;20132;-69
2021/05/30 07:56:42;;;;;;;21.15;12.70;;;;;;;;;;10259285;28;20049;-69
2021/05/30 08:01:39;;;;;;;18.55;10.73;;;;;;;;;;10261537;28;20065;-69
2021/05/30 08:06:36;;;;;;;22.02;12.27;;;;;;;;;;10261064;28;20502;-70
2021/05/30 08:11:33;;;;;;;19.42;11.35;;;;;;;;;;10261761;28;20041;-69
2021/05/30 08:16:30;;;;;;;19.52;11.30;;;;;;;;;;10263200;28;20045;-69
2021/05/30 08:21:26;;;;;;;20.38;11.85;;;;;;;;;;10274709;28;20131;-70
2021/05/30 08:26:24;;;;;;;19.05;10.27;;;;;;;;;;10270086;28;20069;-69
2021/05/30 08:31:21;;;;;;;20.15;10.20;;;;;;;;;;10270003;28;20138;-70
2021/05/30 08:36:17;;;;;;;16.05;9.05;;;;;;;;;;10261297;28;20050;-69
2021/05/30 08:41:16;;;;;;;18.20;10.43;;;;;;;;;;10259526;28;20045;-70
2021/05/30 08:46:13;;;;;;;14.57;9.57;;;;;;;;;;10261775;28;20148;-72
2021/05/30 08:51:12;;;;;;;17.75;8.20;;;;;;;;;;10242642;28;20136;-69
2021/05/30 08:56:12;;;;;;;14.68;9.00;;;;;;;;;;10257100;28;20525;-67
2021/05/30 09:01:09;;;;;;;20.33;9.23;;;;;;;;;;10251205;28;20073;-67
2021/05/30 09:06:15;;;;;;;17.10;8.82;;;;;;;;;;10247536;28;20041;-70
2021/05/30 09:11:12;;;;;;;16.75;8.82;;;;;;;;;;10260207;28;20093;-70
2021/05/30 09:16:10;;;;;;;17.75;9.63;;;;;;;;;;10264468;28;20068;-70
2021/05/30 09:21:19;;;;;;;17.52;8.25;;;;;;;;;;10256550;28;20049;-70
2021/05/30 09:26:19;;;;;;;17.73;8.98;;;;;;;;;;10261151;28;20533;-69
2021/05/30 09:31:15;;;;;;;15.13;8.43;;;;;;;;;;10250925;28;20111;-68
2021/05/30 09:36:12;;;;;;;14.65;8.73;;;;;;;;;;10255464;28;20047;-68
2021/05/30 09:41:14;;;;;;;16.83;8.88;;;;;;;;;;10255992;28;20045;-67
2021/05/30 09:46:11;;;;;;;20.30;9.90;;;;;;;;;;10263613;28;20131;-70
2021/05/30 09:51:28;;;;;;;18.67;8.35;;;;;;;;;;10259147;28;20041;-69
2021/05/30 09:56:32;;;;;;;15.90;7.93;;;;;;;;;;10272885;28;20041;-69
2021/05/30 10:01:45;;;;;;;20.23;8.23;;;;;;;;;;10260194;28;20072;-69
2021/05/30 10:06:43;;;;;;;14.90;8.10;;;;;;;;;;10269253;28;20083;-68
2021/05/30 10:11:40;;;;;;;14.38;7.13;;;;;;;;;;10266418;28;20044;-69
2021/05/30 10:16:37;;;;;;;11.30;6.72;;;;;;;;;;10277757;28;20049;-69
2021/05/30 10:21:35;;;;;;;11.45;6.25;;;;;;;;;;10269592;28;20072;-68
2021/05/30 10:26:33;;;;;;;12.05;5.88;;;;;;;;;;10278710;28;20076;-69
2021/05/30 10:31:32;;;;;;;17.85;6.88;;;;;;;;;;10260727;28;20495;-69
2021/05/30 10:36:29;;;;;;;12.60;6.57;;;;;;;;;;10265151;28;20042;-70
2021/05/30 10:41:25;;;;;;;13.25;6.30;;;;;;;;;;11313601;22;20024;-69
2021/05/30 10:46:23;;;;;;;15.30;5.82;;;;;;;;;;10236629;28;20099;-70
2021/05/30 10:51:39;;;;;;;14.98;7.68;;;;;;;;;;10271083;28;20045;-70
2021/05/30 10:56:37;;;;;;;13.30;6.85;;;;;;;;;;10234833;28;20494;-69
2021/05/30 11:01:34;;;;;;;13.35;6.97;;;;;;;;;;10231045;28;20049;-69
2021/05/30 11:06:50;;;;;;;15.15;6.47;;;;;;;;;;10230850;28;20080;-69
2021/05/30 11:12:06;;;;;;;14.85;7.40;;;;;;;;;;10233139;28;20101;-67
2021/05/30 11:17:03;;;;;;;14.65;7.80;;;;;;;;;;10237284;28;20037;-69
2021/05/30 11:21:59;;;;;;;9.68;5.60;;;;;;;;;;10218228;28;20083;-69
2021/05/30 11:27:00;;;;;;;9.65;4.80;;;;;;;;;;10225532;28;20053;-68
2021/05/30 11:31:59;;;;;;;10.63;5.50;;;;;;;;;;10230056;28;20044;-69
2021/05/30 11:37:06;;;;;;;12.23;5.07;;;;;;;;;;10207075;28;20141;-69
2021/05/30 11:42:03;;;;;;;11.88;5.00;;;;;;;;;;10216663;28;20506;-68
2021/05/30 11:47:01;;;;;;;11.10;4.90;;;;;;;;;;10231981;28;20132;-68
2021/05/30 11:52:03;;;;;;;11.18;4.68;;;;;;;;;;10241182;28;20106;-68
2021/05/30 11:57:04;;;;;;;11.43;5.40;;;;;;;;;;10233841;28;20160;-68
2021/05/30 12:02:00;;;;;;;15.00;5.80;;;;;;;;;;10239746;28;20049;-68
2021/05/30 12:06:57;;;;;;;10.85;5.32;;;;;;;;;;10231474;28;20052;-70
2021/05/30 12:11:53;;;;;;;14.60;6.60;;;;;;;;;;10232518;28;20076;-72
2021/05/30 12:16:50;;;;;;;10.02;5.60;;;;;;;;;;10239070;28;20046;-70
2021/05/30 12:21:47;;;;;;;13.93;6.40;;;;;;;;;;10235408;28;20041;-70
2021/05/30 12:26:44;;;;;;;13.43;6.40;;;;;;;;;;10240322;28;20064;-70
2021/05/30 12:31:41;;;;;;;10.35;6.38;;;;;;;;;;10234124;28;20049;-70
2021/05/30 12:36:44;;;;;;;11.68;7.20;;;;;;;;;;10241033;28;20053;-69
2021/05/30 12:41:40;;;;;;;;;;;;;;;;;;10231986;28;20191;-70
2021/05/30 12:46:37;;;;;;;15.05;7.32;;;;;;;;;;10225875;28;19964;-70
2021/05/30 12:51:34;;;;;;;14.57;7.70;;;;;;;;;;10241637;28;20053;-69
2021/05/30 12:56:30;;;;;;;11.98;6.93;;;;;;;;;;10238591;28;20107;-70
2021/05/30 13:01:27;;;;;;;13.73;6.97;;;;;;;;;;10229677;28;20576;-69
2021/05/30 13:06:24;;;;;;;12.95;8.35;;;;;;;;;;10246469;28;20049;-70
2021/05/30 13:11:29;;;;;;;15.30;7.68;;;;;;;;;;10237049;28;20049;-69
2021/05/30 13:16:29;;;;;;;15.38;8.15;;;;;;;;;;10244128;28;20048;-70
2021/05/30 13:21:27;;;;;;;14.65;8.50;;;;;;;;;;10240410;28;20136;-70
2021/05/30 13:26:26;;;;;;;12.35;7.07;;;;;;;;;;10246044;28;20049;-70
2021/05/30 13:31:23;;;;;;;14.75;7.18;;;;;;;;;;10239285;28;20099;-70
2021/05/30 13:36:23;;;;;;;13.13;7.72;;;;;;;;;;10231207;28;20041;-70
2021/05/30 13:41:26;;;;;;;10.60;5.90;;;;;;;;;;10244955;28;20208;-70
2021/05/30 13:46:23;;;;;;;14.20;6.95;;;;;;;;;;10236272;28;20359;-70
2021/05/30 13:51:20;;;;;;;12.52;7.20;;;;;;;;;;10245202;28;20128;-70
2021/05/30 13:56:17;;;;;;;13.30;6.57;;;;;;;;;;10245039;28;20080;-69
2021/05/30 14:01:14;;;;;;;14.63;6.82;;;;;;;;;;10240056;28;20041;-70
2021/05/30 14:06:12;;;;;;;15.43;7.63;;;;;;;;;;10238245;28;20091;-70
2021/05/30 14:11:09;;;;;;;14.30;6.95;;;;;;;;;;10240592;28;20045;-70
2021/05/30 14:16:07;;;;;;;13.95;5.82;;;;;;;;;;10244773;28;20061;-70
2021/05/30 14:21:04;;;;;;;15.70;6.80;;;;;;;;;;10241172;28;20041;-70
2021/05/30 14:26:01;;;;;;;8.75;4.22;;;;;;;;;;10238301;28;20069;-70
2021/05/30 14:30:57;;;;;;;9.18;4.07;;;;;;;;;;10245484;28;20045;-70
2021/05/30 14:35:54;;;;;;;8.48;5.40;;;;;;;;;;10235774;28;20470;-70
2021/05/30 14:40:50;;;;;;;8.68;4.20;;;;;;;;;;10246526;28;20231;-72
2021/05/30 14:45:47;;;;;;;13.88;5.07;;;;;;;;;;10235550;28;20076;-70
2021/05/30 14:50:48;;;;;;;14.02;4.30;;;;;;;;;;10239195;28;20132;-70
2021/05/30 14:55:44;;;;;;;8.32;3.85;;;;;;;;;;10245168;28;20045;-70
2021/05/30 15:00:43;;;;;;;11.48;5.13;;;;;;;;;;10243533;28;20655;-70
2021/05/30 15:05:40;;;;;;;9.55;5.70;;;;;;;;;;10243697;28;20045;-70
2021/05/30 15:10:48;;;;;;;9.60;5.55;;;;;;;;;;10235770;28;20091;-70
2021/05/30 15:15:45;;;;;;;12.30;5.75;;;;;;;;;;10242596;28;20046;-69
2021/05/30 15:20:42;;;;;;;8.23;4.72;;;;;;;;;;10237649;28;20486;-69
2021/05/30 15:25:38;;;;;;;10.48;4.40;;;;;;;;;;10243760;28;20037;-70
2021/05/30 15:30:34;;;;;;;8.55;5.20;;;;;;;;;;10239240;28;20462;-70
2021/05/30 15:35:31;;;;;;;8.48;4.40;;;;;;;;;;10239207;28;20059;-69
2021/05/30 15:40:27;;;;;;;10.02;4.60;;;;;;;;;;10234945;28;20048;-69
2021/05/30 15:45:24;;;;;;;8.05;4.47;;;;;;;;;;10221877;28;20096;-69
2021/05/30 15:50:20;;;;;;;9.00;4.05;;;;;;;;;;10225856;28;20053;-69
2021/05/30 15:55:16;;;;;;;6.22;3.40;;;;;;;;;;10235747;28;20519;-69
2021/05/30 16:00:13;;;;;;;11.40;5.18;;;;;;;;;;10235451;28;20063;-68
2021/05/30 16:05:10;;;;;;;9.13;4.15;;;;;;;;;;10231533;28;20052;-68
2021/05/30 16:10:07;;;;;;;6.97;3.22;;;;;;;;;;10232998;28;20096;-68
2021/05/30 16:15:05;;;;;;;5.63;2.72;;;;;;;;;;10232373;28;20072;-68
2021/05/30 16:20:03;;;;;;;8.35;3.10;;;;;;;;;;10231909;28;20545;-68
2021/05/30 16:24:59;;;;;;;7.45;3.53;;;;;;;;;;10234101;28;20080;-68
2021/05/30 16:29:56;;;;;;;7.05;3.53;;;;;;;;;;10234376;28;20057;-69
2021/05/30 16:34:52;;;;;;;9.18;3.55;;;;;;;;;;10228249;28;20083;-68
2021/05/30 16:39:49;;;;;;;7.53;4.32;;;;;;;;;;10233083;28;20160;-68
2021/05/30 16:44:45;;;;;;;6.65;3.20;;;;;;;;;;10226086;28;20558;-68
2021/05/30 16:49:41;;;;;;;6.50;3.65;;;;;;;;;;10229084;28;20040;-68
2021/05/30 16:54:38;;;;;;;6.05;3.38;;;;;;;;;;10220396;28;20103;-66
2021/05/30 16:59:34;;;;;;;9.15;3.92;;;;;;;;;;10224592;28;20175;-66
2021/05/30 17:04:31;;;;;;;10.45;6.82;;;;;;;;;;10222789;28;20128;-66
2021/05/30 17:09:27;;;;;;;16.35;8.70;;;;;;;;;;10229397;28;20068;-69
2021/05/30 17:14:24;;;;;;;7.63;3.70;;;;;;;;;;10247322;28;20037;-69
2021/05/30 17:19:21;;;;;;;5.95;3.22;;;;;;;;;;10237736;28;20415;-69
2021/05/30 17:24:19;;;;;;;5.57;2.65;;;;;;;;;;10236536;28;20054;-69
2021/05/30 17:29:16;;;;;;;9.43;3.15;;;;;;;;;;10225185;28;20139;-69
2021/05/30 17:34:12;;;;;;;5.38;2.47;;;;;;;;;;10228435;28;20073;-70
2021/05/30 17:39:09;;;;;;;8.70;2.63;;;;;;;;;;10227663;28;20033;-69
2021/05/30 17:44:06;;;;;;;4.47;1.95;;;;;;;;;;10238558;28;20065;-69
2021/05/30 17:49:03;;;;;;;11.70;7.50;;;;;;;;;;10232493;28;20127;-69
2021/05/30 17:53:59;;;;;;;9.77;5.45;;;;;;;;;;10234588;28;20136;-69
2021/05/30 17:58:55;;;;;;;7.82;3.10;;;;;;;;;;10231334;28;20046;-69
2021/05/30 18:03:52;;;;;;;8.45;4.40;;;;;;;;;;10232252;28;20038;-69
2021/05/30 18:08:59;;;;;;;8.63;4.38;;;;;;;;;;10226586;28;20050;-68
2021/05/30 18:13:55;;;;;;;7.75;4.30;;;;;;;;;;10230584;28;20073;-68
2021/05/30 18:18:52;;;;;;;8.48;3.85;;;;;;;;;;10231922;28;20049;-68
2021/05/30 18:23:49;;;;;;;8.65;4.25;;;;;;;;;;10236052;28;20136;-68
2021/05/30 18:28:45;;;;;;;6.53;4.10;;;;;;;;;;10232606;28;20128;-69
2021/05/30 18:33:42;;;;;;;8.32;4.53;;;;;;;;;;10239455;28;20080;-68
2021/05/30 18:38:39;;;;;;;6.75;4.03;;;;;;;;;;10232142;28;20041;-68
2021/05/30 18:43:35;;;;;;;8.25;3.50;;;;;;;;;;10234502;28;20129;-68
2021/05/30 18:48:32;;;;;;;7.70;4.25;;;;;;;;;;10234523;28;20091;-69
2021/05/30 18:53:29;;;;;;;8.23;3.90;;;;;;;;;;10230844;28;20045;-68
2021/05/30 18:58:25;;;;;;;9.18;3.72;;;;;;;;;;10235420;28;20511;-68
2021/05/30 19:03:21;;;;;;;8.05;3.50;;;;;;;;;;10232274;28;20169;-68
2021/05/30 19:08:18;;;;;;;7.07;3.80;;;;;;;;;;10235749;28;20108;-68
2021/05/30 19:13:14;;;;;;;11.15;4.43;;;;;;;;;;10231429;28;20103;-68
2021/05/30 19:18:11;;;;;;;11.48;3.97;;;;;;;;;;10234928;28;20133;-68
2021/05/30 19:23:08;;;;;;;11.73;4.78;;;;;;;;;;10232927;28;20484;-68
2021/05/30 19:28:05;;;;;;;10.32;4.88;;;;;;;;;;10231173;28;20091;-68
2021/05/30 19:33:01;;;;;;;10.52;4.55;;;;;;;;;;10232567;28;20515;-67
2021/05/30 19:37:58;;;;;;;12.43;4.70;;;;;;;;;;10233884;28;20045;-68
2021/05/30 19:42:54;;;;;;;11.98;4.57;;;;;;;;;;10231600;28;20076;-68
2021/05/30 19:47:51;;;;;;;14.27;4.72;;;;;;;;;;10229577;28;20128;-67
2021/05/30 19:52:48;;;;;;;9.27;3.85;;;;;;;;;;10238385;28;20096;-68
2021/05/30 19:57:45;;;;;;;9.07;4.22;;;;;;;;;;10231954;28;20053;-67
2021/05/30 20:02:42;;;;;;;11.45;4.20;;;;;;;;;;10225274;28;20053;-67
2021/05/30 20:07:40;;;;;;;9.57;4.47;;;;;;;;;;10223437;28;20536;-68
2021/05/30 20:12:37;;;;;;;7.38;4.45;;;;;;;;;;10236546;28;20078;-67
2021/05/30 20:17:33;;;;;;;10.88;4.70;;;;;;;;;;10233723;28;20053;-68
2021/05/30 20:22:30;;;;;;;11.73;4.80;;;;;;;;;;10223078;28;20674;-67
2021/05/30 20:27:33;;;;;;;11.10;4.97;;;;;;;;;;10223108;28;20076;-67
2021/05/30 20:32:29;;;;;;;14.48;4.82;;;;;;;;;;10230146;28;20041;-69
2021/05/30 20:37:26;;;;;;;10.73;4.68;;;;;;;;;;10228370;28;20144;-68
2021/05/30 20:46:33;;;;;;;11.80;5.05;;;;;;;;;;10289006;28;20632;-68
2021/05/30 20:51:29;;;;;;;9.85;5.00;;;;;;;;;;10344826;28;20082;-68
2021/05/30 20:56:25;;;;;;;8.93;4.78;;;;;;;;;;10345726;28;20040;-69
2021/05/30 21:01:22;;;;;;;11.18;5.40;;;;;;;;;;10341121;28;20033;-68
2021/05/30 21:06:18;;;;;;;13.13;4.70;;;;;;;;;;10342662;28;20403;-69
2021/05/30 21:11:17;;;;;;;8.70;5.53;;;;;;;;;;10351361;28;20137;-69
2021/05/30 21:16:15;;;;;;;7.90;4.82;;;;;;;;;;10330504;28;20055;-67
2021/05/30 21:21:13;;;;;;;10.60;5.25;;;;;;;;;;10331390;28;20044;-67
2021/05/30 21:26:09;;;;;;;10.43;5.07;;;;;;;;;;10335431;28;20154;-68
2021/05/30 21:31:06;;;;;;;7.85;4.55;;;;;;;;;;10335584;28;20497;-68
2021/05/30 21:36:02;;;;;;;8.48;4.80;;;;;;;;;;10339463;28;20397;-69
2021/05/30 21:40:59;;;;;;;9.75;5.18;;;;;;;;;;10321384;28;20133;-69
2021/05/30 21:45:55;;;;;;;9.15;5.05;;;;;;;;;;10336300;28;20167;-67
2021/05/30 21:50:51;;;;;;;14.38;6.43;;;;;;;;;;10334723;28;20078;-69
2021/05/30 21:55:48;;;;;;;11.70;5.10;;;;;;;;;;10324025;28;20089;-68
2021/05/30 22:00:45;;;;;;;12.65;5.22;;;;;;;;;;10319654;28;20045;-71
2021/05/30 22:05:43;;;;;;;13.52;6.03;;;;;;;;;;10297573;28;20502;-70
2021/05/30 22:10:39;;;;;;;10.85;5.68;;;;;;;;;;10307233;28;20095;-70
2021/05/30 22:15:39;;;;;;;9.88;6.07;;;;;;;;;;10314226;28;20127;-68
2021/05/30 22:20:35;;;;;;;13.73;5.85;;;;;;;;;;10312259;28;20070;-68
2021/05/30 22:25:31;;;;;;;12.18;6.72;;;;;;;;;;10313726;28;20749;-68
2021/05/30 22:30:28;;;;;;;10.02;6.05;;;;;;;;;;10315737;28;20557;-67
2021/05/30 22:35:24;;;;;;;13.55;7.40;;;;;;;;;;10309284;28;20145;-67
2021/05/30 22:40:21;;;;;;;8.95;6.07;;;;;;;;;;10303277;28;20041;-67
2021/05/30 22:45:17;;;;;;;10.02;6.35;;;;;;;;;;10313899;28;20044;-67
2021/05/30 22:50:15;;;;;;;11.95;6.25;;;;;;;;;;10304485;28;20409;-67
2021/05/30 22:55:12;;;;;;;11.52;7.35;;;;;;;;;;10313488;28;20595;-68
2021/05/30 23:00:14;;;;;;;11.25;7.07;;;;;;;;;;10304483;28;20047;-67
2021/05/30 23:05:11;;;;;;;12.07;7.13;;;;;;;;;;10308760;28;20044;-67
2021/05/30 23:10:09;;;;;;;13.57;7.20;;;;;;;;;;10316962;28;20044;-68
2021/05/30 23:15:06;;;;;;;14.90;7.43;;;;;;;;;;10309043;28;20084;-67
2021/05/30 23:20:04;;;;;;;15.23;8.20;;;;;;;;;;10300112;28;20139;-67
2021/05/30 23:25:01;;;;;;;15.27;7.78;;;;;;;;;;10293779;28;20475;-67
2021/05/30 23:29:57;;;;;;;14.95;9.13;;;;;;;;;;10301675;28;20044;-68
2021/05/30 23:34:54;;;;;;;16.13;9.35;;;;;;;;;;10297466;28;20102;-67
2021/05/30 23:39:50;;;;;;;17.40;9.98;;;;;;;;;;10308646;28;20037;-66
2021/05/30 23:44:46;;;;;;;14.20;9.30;;;;;;;;;;10316213;28;20116;-66
2021/05/30 23:49:42;;;;;;;15.32;9.60;;;;;;;;;;10314573;28;20075;-67
2021/05/30 23:54:39;;;;;;;21.00;10.45;;;;;;;;;;10299002;28;20136;-66
2021/05/30 23:59:35;;;;;;;16.30;9.90;;;;;;;;;;10301103;28;20140;-67
